createdAt,value
2022-08-11T00:01:21.145Z,6.75
2022-08-11T00:03:53.851Z,6.57
2022-08-11T00:06:29.982Z,6.22
2022-08-11T00:08:58.255Z,6.80
2022-08-11T00:11:36.681Z,6.65
2022-08-11T00:14:13.055Z,6.97
2022-08-11T00:16:42.106Z,7.03
2022-08-11T00:19:10.951Z,6.40
2022-08-11T00:22:04.661Z,7.70
2022-08-11T00:24:38.682Z,6.90
2022-08-11T00:27:20.599Z,6.47
2022-08-11T00:29:55.052Z,6.70
2022-08-11T00:32:22.497Z,6.85
2022-08-11T00:34:50.875Z,7.10
2022-08-11T00:37:21.623Z,7.57
2022-08-11T00:39:54.239Z,7.22
2022-08-11T00:42:24.226Z,6.05
2022-08-11T00:45:09.559Z,7.55
2022-08-11T00:47:42.100Z,6.93
2022-08-11T00:50:27.816Z,7.35
2022-08-11T00:53:28.754Z,6.65
2022-08-11T00:56:14.243Z,6.57
2022-08-11T00:59:35.184Z,6.62
2022-08-11T01:02:05.819Z,6.82
2022-08-11T01:05:14.181Z,7.03
2022-08-11T01:08:03.653Z,6.55
2022-08-11T01:10:58.439Z,7.47
2022-08-11T01:13:43.043Z,7.57
2022-08-11T01:16:31.749Z,7.40
2022-08-11T01:19:17.214Z,7.20
2022-08-11T01:21:56.714Z,7.43
2022-08-11T01:24:29.791Z,7.20
2022-08-11T01:27:34.640Z,7.07
2022-08-11T01:30:30.591Z,7.37
2022-08-11T01:33:23.834Z,7.47
2022-08-11T01:36:45.285Z,7.90
2022-08-11T01:39:34.952Z,6.93
2022-08-11T01:42:23.588Z,7.30
2022-08-11T01:45:27.817Z,7.47
2022-08-11T01:48:22.362Z,7.20
2022-08-11T01:51:08.646Z,7.37
2022-08-11T01:53:57.121Z,7.40
2022-08-11T01:56:34.267Z,7.05
2022-08-11T01:59:22.794Z,7.15
2022-08-11T02:01:50.460Z,7.82
2022-08-11T02:04:42.287Z,7.40
2022-08-11T02:07:38.700Z,6.95
2022-08-11T02:10:41.138Z,6.50
2022-08-11T02:13:36.498Z,6.40
2022-08-11T02:16:21.467Z,7.60
2022-08-11T02:19:14.164Z,6.82
2022-08-11T02:22:13.950Z,7.28
2022-08-11T02:24:49.471Z,6.53
2022-08-11T02:27:23.358Z,7.28
2022-08-11T02:30:07.392Z,7.10
2022-08-11T02:33:09.456Z,7.00
2022-08-11T02:35:55.838Z,6.57
2022-08-11T02:38:24.645Z,7.20
2022-08-11T02:41:28.653Z,6.87
2022-08-11T02:44:28.266Z,7.25
2022-08-11T02:47:22.907Z,6.72
2022-08-11T02:50:07.493Z,6.80
2022-08-11T02:52:59.649Z,7.37
2022-08-11T02:55:48.911Z,6.80
2022-08-11T02:58:35.516Z,7.90
2022-08-11T03:01:23.717Z,7.65
2022-08-11T03:04:18.173Z,7.22
2022-08-11T03:07:29.029Z,7.18
2022-08-11T03:10:22.638Z,7.07
2022-08-11T03:13:33.357Z,7.07
2022-08-11T03:16:32.106Z,7.50
2022-08-11T03:19:11.580Z,7.18
2022-08-11T03:22:03.044Z,7.28
2022-08-11T03:24:46.487Z,7.53
2022-08-11T03:27:22.100Z,7.25
2022-08-11T03:30:08.171Z,7.18
2022-08-11T03:33:17.152Z,8.32
2022-08-11T03:35:55.157Z,7.50
2022-08-11T03:38:30.527Z,8.20
2022-08-11T03:42:02.330Z,7.45
2022-08-11T03:44:55.795Z,7.37
2022-08-11T03:47:27.707Z,7.85
2022-08-11T03:50:03.758Z,7.62
2022-08-11T03:52:49.555Z,7.43
2022-08-11T03:55:34.751Z,7.68
2022-08-11T03:58:23.025Z,7.80
2022-08-11T04:01:20.579Z,8.18
2022-08-11T04:04:25.308Z,8.07
2022-08-11T04:06:57.641Z,7.65
2022-08-11T04:10:06.624Z,7.37
2022-08-11T04:13:01.137Z,6.82
2022-08-11T04:16:11.043Z,7.65
2022-08-11T04:19:11.185Z,8.10
2022-08-11T04:21:40.875Z,7.80
2022-08-11T04:24:49.770Z,6.45
2022-08-11T04:27:40.039Z,7.90
2022-08-11T04:30:35.015Z,7.95
2022-08-11T04:33:37.720Z,8.60
2022-08-11T04:36:44.542Z,8.02
2022-08-11T04:39:27.922Z,8.57
2022-08-11T04:42:50.382Z,8.25
2022-08-11T04:45:29.415Z,8.07
2022-08-11T04:48:36.301Z,7.45
2022-08-11T04:51:43.697Z,8.00
2022-08-11T04:54:50.717Z,8.43
2022-08-11T04:58:04.393Z,7.75
2022-08-11T05:00:59.997Z,8.45
2022-08-11T05:04:36.914Z,9.18
2022-08-11T05:07:09.511Z,9.15
2022-08-11T05:10:10.694Z,9.82
2022-08-11T05:12:55.363Z,9.30
2022-08-11T05:16:13.799Z,9.20
2022-08-11T05:19:09.473Z,9.63
2022-08-11T05:21:57.462Z,10.05
2022-08-11T05:24:44.669Z,9.73
2022-08-11T05:27:33.562Z,10.50
2022-08-11T05:30:28.154Z,9.63
2022-08-11T05:33:28.639Z,10.07
2022-08-11T05:36:24.724Z,9.43
2022-08-11T05:39:18.506Z,10.80
2022-08-11T05:42:04.961Z,10.88
2022-08-11T05:44:53.142Z,9.43
2022-08-11T05:47:44.178Z,9.85
2022-08-11T05:50:33.168Z,9.02
2022-08-11T05:53:21.407Z,9.35
2022-08-11T05:56:09.990Z,11.32
2022-08-11T05:58:42.698Z,9.95
2022-08-11T06:01:21.543Z,10.50
2022-08-11T06:04:10.886Z,10.07
2022-08-11T06:06:45.290Z,9.38
2022-08-11T06:09:14.442Z,9.45
2022-08-11T06:11:44.916Z,9.68
2022-08-11T06:14:15.598Z,9.77
2022-08-11T06:16:43.566Z,8.98
2022-08-11T06:19:10.691Z,8.73
2022-08-11T06:21:38.228Z,9.85
2022-08-11T06:24:15.355Z,9.25
2022-08-11T06:27:11.279Z,9.45
2022-08-11T06:29:55.382Z,8.85
2022-08-11T06:32:32.496Z,8.50
2022-08-11T06:35:18.148Z,8.48
2022-08-11T06:37:49.063Z,8.02
2022-08-11T06:40:35.675Z,7.70
2022-08-11T06:43:30.367Z,8.35
2022-08-11T06:46:03.909Z,8.10
2022-08-11T06:48:33.700Z,9.00
2022-08-11T06:51:12.920Z,8.18
2022-08-11T06:54:03.440Z,8.30
2022-08-11T06:57:28.495Z,8.85
2022-08-11T07:00:02.953Z,7.87
2022-08-11T07:03:12.660Z,8.05
2022-08-11T07:05:46.447Z,7.95
2022-08-11T07:08:56.300Z,9.23
2022-08-11T07:12:17.247Z,8.07
2022-08-11T07:15:09.981Z,7.78
2022-08-11T07:17:49.267Z,8.63
2022-08-11T07:20:41.290Z,7.78
2022-08-11T07:23:28.679Z,8.48
2022-08-11T07:26:18.162Z,8.40
2022-08-11T07:28:55.371Z,7.87
2022-08-11T07:31:31.427Z,8.80
2022-08-11T07:34:18.734Z,8.55
2022-08-11T07:36:58.643Z,9.13
2022-08-11T07:39:33.309Z,9.50
2022-08-11T07:42:06.263Z,7.68
2022-08-11T07:44:54.583Z,9.18
2022-08-11T07:47:41.414Z,8.90
2022-08-11T07:50:28.480Z,8.77
2022-08-11T07:52:57.815Z,8.07
2022-08-11T07:55:49.249Z,8.50
2022-08-11T07:58:40.342Z,8.50
2022-08-11T08:01:36.928Z,9.88
2022-08-11T08:04:24.243Z,9.82
2022-08-11T08:07:10.229Z,9.25
2022-08-11T08:09:56.660Z,8.40
2022-08-11T08:12:44.103Z,8.45
2022-08-11T08:15:31.469Z,9.20
2022-08-11T08:18:09.287Z,8.80
2022-08-11T08:20:52.476Z,8.25
2022-08-11T08:23:33.506Z,7.85
2022-08-11T08:26:04.519Z,8.38
2022-08-11T08:28:33.619Z,8.20
2022-08-11T08:31:00.755Z,7.40
2022-08-11T08:33:30.301Z,7.87
2022-08-11T08:36:12.685Z,7.60
2022-08-11T08:38:47.228Z,8.25
2022-08-11T08:41:19.388Z,7.43
2022-08-11T08:43:51.462Z,7.15
2022-08-11T08:46:25.654Z,6.78
2022-08-11T08:48:53.729Z,6.57
2022-08-11T08:51:58.549Z,6.40
2022-08-11T08:54:28.997Z,7.00
2022-08-11T08:56:57.399Z,6.53
2022-08-11T08:59:26.764Z,6.05
2022-08-11T09:02:13.953Z,6.50
2022-08-11T09:04:44.226Z,6.43
2022-08-11T09:07:13.370Z,6.85
2022-08-11T09:09:48.966Z,6.22
2022-08-11T09:12:38.355Z,6.10
2022-08-11T09:15:08.162Z,6.57
2022-08-11T09:17:44.913Z,7.15
2022-08-11T09:20:25.779Z,7.32
2022-08-11T09:24:07.100Z,6.93
2022-08-11T09:26:31.021Z,7.90
2022-08-11T09:28:59.551Z,8.10
2022-08-11T09:31:29.589Z,8.10
2022-08-11T09:33:56.506Z,7.78
2022-08-11T09:36:42.983Z,8.15
2022-08-11T09:39:31.389Z,7.57
2022-08-11T09:42:03.436Z,8.55
2022-08-11T09:44:50.006Z,7.93
2022-08-11T09:47:24.706Z,8.80
2022-08-11T09:50:02.213Z,7.35
2022-08-11T09:52:36.485Z,8.38
2022-08-11T09:55:06.291Z,8.27
2022-08-11T09:57:51.971Z,9.43
2022-08-11T10:00:18.807Z,8.52
2022-08-11T10:02:48.513Z,8.25
2022-08-11T10:05:36.851Z,8.55
2022-08-11T10:08:05.867Z,8.27
2022-08-11T10:10:37.533Z,8.55
2022-08-11T10:14:06.086Z,8.73
2022-08-11T10:16:15.328Z,8.20
2022-08-11T10:18:52.960Z,7.80
2022-08-11T10:21:40.647Z,8.35
2022-08-11T10:24:28.657Z,8.10
2022-08-11T10:27:00.613Z,9.23
2022-08-11T10:29:58.193Z,9.15
2022-08-11T10:32:57.706Z,8.80
2022-08-11T10:35:28.278Z,8.85
2022-08-11T10:38:06.159Z,9.82
2022-08-11T10:40:39.005Z,8.80
2022-08-11T10:43:13.214Z,9.25
2022-08-11T10:46:03.592Z,9.57
2022-08-11T10:48:36.400Z,9.45
2022-08-11T10:51:14.283Z,9.30
2022-08-11T10:54:12.344Z,9.30
2022-08-11T10:56:59.435Z,9.93
2022-08-11T10:59:28.576Z,9.20
2022-08-11T11:01:56.460Z,9.05
2022-08-11T11:04:29.184Z,9.05
2022-08-11T11:07:24.126Z,10.02
2022-08-11T11:09:56.096Z,9.65
2022-08-11T11:12:49.125Z,9.02
2022-08-11T11:15:37.194Z,10.45
2022-08-11T11:18:07.452Z,9.80
2022-08-11T11:20:47.188Z,9.70
2022-08-11T11:23:19.966Z,9.60
2022-08-11T11:26:06.710Z,8.95
2022-08-11T11:28:58.663Z,8.05
2022-08-11T11:31:48.475Z,9.15
2022-08-11T11:34:27.559Z,9.75
2022-08-11T11:36:56.865Z,9.35
2022-08-11T11:39:27.465Z,9.50
2022-08-11T11:41:57.041Z,9.60
2022-08-11T11:44:25.459Z,9.35
2022-08-11T11:46:53.419Z,9.13
2022-08-11T11:51:52.839Z,9.40
2022-08-11T11:54:26.665Z,9.27
2022-08-11T11:56:55.632Z,9.98
2022-08-11T11:59:44.342Z,10.13
2022-08-11T12:02:14.894Z,9.63
2022-08-11T12:04:44.466Z,9.30
2022-08-11T12:07:30.853Z,9.55
2022-08-11T12:09:59.267Z,11.73
2022-08-11T12:12:44.874Z,9.20
2022-08-11T12:15:12.529Z,9.10
2022-08-11T12:17:39.791Z,9.77
2022-08-11T12:20:32.146Z,9.93
2022-08-11T12:23:16.594Z,9.45
2022-08-11T12:26:27.360Z,10.10
2022-08-11T12:28:53.409Z,10.25
2022-08-11T12:31:22.121Z,10.25
2022-08-11T12:33:50.371Z,10.88
2022-08-11T12:36:20.416Z,11.02
2022-08-11T12:38:51.585Z,10.23
2022-08-11T12:41:40.459Z,10.68
2022-08-11T12:44:29.903Z,10.98
2022-08-11T12:47:02.178Z,10.23
2022-08-11T12:49:51.545Z,10.50
2022-08-11T12:52:26.348Z,10.40
2022-08-11T12:55:12.974Z,10.90
2022-08-11T12:58:05.673Z,10.43
2022-08-11T13:00:51.650Z,10.80
2022-08-11T13:03:39.195Z,11.10
2022-08-11T13:06:07.432Z,10.95
2022-08-11T13:08:37.874Z,10.45
2022-08-11T13:11:23.678Z,10.30
2022-08-11T13:13:57.427Z,10.88
2022-08-11T13:16:29.123Z,11.38
2022-08-11T13:19:01.073Z,11.02
2022-08-11T13:21:29.100Z,11.55
2022-08-11T13:23:59.404Z,10.75
2022-08-11T13:26:43.690Z,11.75
2022-08-11T13:29:28.630Z,12.18
2022-08-11T13:32:00.065Z,12.52
2022-08-11T13:34:31.242Z,13.13
2022-08-11T13:37:01.008Z,12.32
2022-08-11T13:39:31.004Z,11.45
2022-08-11T13:42:00.358Z,13.52
2022-08-11T13:44:29.921Z,13.38
2022-08-11T13:47:03.898Z,13.05
2022-08-11T13:49:32.476Z,12.50
2022-08-11T13:52:00.041Z,12.45
2022-08-11T13:54:30.438Z,12.98
2022-08-11T13:57:01.856Z,12.43
2022-08-11T13:59:30.879Z,11.77
2022-08-11T14:02:28.338Z,12.25
2022-08-11T14:05:10.115Z,12.50
2022-08-11T14:07:46.473Z,12.85
2022-08-11T14:10:16.402Z,11.75
2022-08-11T14:13:06.315Z,12.48
2022-08-11T14:15:35.494Z,12.27
2022-08-11T14:18:17.175Z,12.23
2022-08-11T14:21:05.633Z,12.65
2022-08-11T14:23:59.381Z,12.65
2022-08-11T14:26:31.427Z,12.50
2022-08-11T14:29:11.179Z,12.35
2022-08-11T14:31:39.088Z,13.15
2022-08-11T14:34:10.561Z,12.07
2022-08-11T14:36:40.757Z,12.02
2022-08-11T14:39:13.771Z,13.52
2022-08-11T14:42:10.276Z,13.00
2022-08-11T14:45:03.351Z,13.45
2022-08-11T14:47:34.915Z,12.48
2022-08-11T14:50:11.258Z,12.57
2022-08-11T14:53:00.496Z,12.65
2022-08-11T14:55:48.631Z,12.65
2022-08-11T14:58:18.507Z,12.90
2022-08-11T15:00:46.331Z,13.32
2022-08-11T15:03:15.348Z,13.18
2022-08-11T15:05:56.319Z,13.18
2022-08-11T15:08:47.165Z,13.18
2022-08-11T15:11:35.045Z,13.50
2022-08-11T15:14:05.634Z,13.32
2022-08-11T15:16:51.955Z,14.10
2022-08-11T15:19:23.587Z,12.52
2022-08-11T15:22:09.260Z,13.60
2022-08-11T15:24:37.450Z,12.55
2022-08-11T15:27:35.717Z,12.70
2022-08-11T15:30:32.940Z,12.45
2022-08-11T15:33:23.303Z,14.00
2022-08-11T15:36:09.682Z,12.82
2022-08-11T15:38:42.726Z,13.32
2022-08-11T15:41:32.367Z,13.77
2022-08-11T15:44:26.848Z,12.98
2022-08-11T15:47:08.321Z,13.50
2022-08-11T15:50:10.673Z,13.13
2022-08-11T15:52:31.709Z,13.20
2022-08-11T15:55:02.305Z,12.65
2022-08-11T15:57:49.347Z,13.18
2022-08-11T16:00:35.754Z,12.90
2022-08-11T16:03:23.336Z,12.90
2022-08-11T16:05:53.308Z,13.20
2022-08-11T16:08:30.298Z,12.25
2022-08-11T16:11:00.419Z,13.60
2022-08-11T16:13:28.911Z,13.50
2022-08-11T16:16:16.042Z,13.27
2022-08-11T16:18:51.724Z,13.02
2022-08-11T16:21:35.199Z,12.93
2022-08-11T16:27:01.821Z,15.23
2022-08-11T16:27:13.081Z,12.75
2022-08-11T16:29:45.590Z,13.98
2022-08-11T16:32:17.334Z,13.30
2022-08-11T16:35:21.433Z,13.75
2022-08-11T16:38:07.738Z,13.18
2022-08-11T16:40:35.706Z,13.40
2022-08-11T16:43:26.224Z,13.93
2022-08-11T16:46:13.611Z,14.60
2022-08-11T16:48:46.127Z,15.40
2022-08-11T16:51:13.851Z,15.20
2022-08-11T16:53:47.383Z,13.10
2022-08-11T16:56:54.230Z,13.48
2022-08-11T16:59:27.185Z,13.32
2022-08-11T17:01:58.114Z,13.10
2022-08-11T17:04:50.230Z,13.20
2022-08-11T17:07:42.231Z,13.77
2022-08-11T17:10:52.918Z,13.15
2022-08-11T17:13:35.617Z,12.95
2022-08-11T17:16:07.717Z,13.18
2022-08-11T17:18:46.782Z,13.85
2022-08-11T17:21:18.645Z,14.02
2022-08-11T17:23:55.091Z,13.60
2022-08-11T17:26:59.716Z,12.80
2022-08-11T17:29:54.955Z,12.20
2022-08-11T17:32:57.321Z,13.55
2022-08-11T17:35:33.595Z,12.27
2022-08-11T17:38:06.056Z,12.65
2022-08-11T17:40:38.798Z,15.20
2022-08-11T17:43:29.347Z,15.18
2022-08-11T17:46:16.513Z,15.38
2022-08-11T17:48:47.586Z,12.68
2022-08-11T17:51:38.763Z,12.57
2022-08-11T17:54:26.218Z,12.43
2022-08-11T17:57:20.466Z,12.77
2022-08-11T17:59:53.675Z,13.80
2022-08-11T18:02:49.759Z,12.52
2022-08-11T18:05:20.119Z,13.70
2022-08-11T18:08:09.299Z,11.70
2022-08-11T18:10:56.597Z,12.25
2022-08-11T18:13:43.915Z,12.68
2022-08-11T18:16:29.935Z,11.70
2022-08-11T18:19:15.538Z,12.40
2022-08-11T18:22:14.261Z,11.45
2022-08-11T18:25:09.067Z,11.93
2022-08-11T18:27:59.247Z,12.07
2022-08-11T18:30:46.216Z,12.13
2022-08-11T18:34:03.399Z,12.65
2022-08-11T18:36:42.805Z,11.85
2022-08-11T18:39:30.673Z,11.95
2022-08-11T18:42:29.130Z,11.57
2022-08-11T18:45:29.819Z,11.60
2022-08-11T18:48:23.333Z,12.18
2022-08-11T18:51:30.958Z,12.37
2022-08-11T18:54:26.002Z,12.27
2022-08-11T18:57:13.094Z,12.80
2022-08-11T19:00:02.398Z,12.90
2022-08-11T19:02:51.431Z,13.02
2022-08-11T19:06:05.946Z,12.75
2022-08-11T19:08:56.016Z,12.70
2022-08-11T19:11:43.925Z,12.93
2022-08-11T19:14:32.059Z,13.55
2022-08-11T19:17:44.854Z,12.98
2022-08-11T19:20:41.072Z,13.93
2022-08-11T19:23:29.887Z,13.05
2022-08-11T19:26:17.344Z,13.57
2022-08-11T19:29:06.331Z,12.93
2022-08-11T19:31:54.293Z,13.18
2022-08-11T19:34:42.732Z,13.25
2022-08-11T19:37:30.380Z,14.52
2022-08-11T19:40:20.180Z,13.20
2022-08-11T19:43:11.236Z,13.32
2022-08-11T19:46:11.397Z,13.25
2022-08-11T19:48:58.386Z,12.82
2022-08-11T19:51:44.242Z,13.40
2022-08-11T19:54:31.435Z,13.75
2022-08-11T19:57:18.203Z,12.75
2022-08-11T20:00:05.123Z,13.07
2022-08-11T20:02:50.529Z,13.00
2022-08-11T20:05:35.955Z,14.00
2022-08-11T20:08:22.976Z,11.82
2022-08-11T20:11:10.908Z,13.10
2022-08-11T20:14:01.789Z,12.10
2022-08-11T20:16:48.803Z,12.90
2022-08-11T20:19:55.357Z,12.40
2022-08-11T20:22:45.515Z,12.82
2022-08-11T20:25:32.933Z,13.32
2022-08-11T20:28:19.421Z,14.15
2022-08-11T20:31:05.503Z,12.90
2022-08-11T20:33:52.225Z,13.85
2022-08-11T20:36:37.932Z,12.65
2022-08-11T20:39:24.681Z,12.98
2022-08-11T20:42:12.542Z,13.00
2022-08-11T20:44:59.087Z,13.25
2022-08-11T20:47:56.223Z,13.52
2022-08-11T20:50:46.432Z,12.88
2022-08-11T20:53:36.117Z,12.85
2022-08-11T21:02:40.790Z,12.10
2022-08-11T21:06:09.242Z,12.98
2022-08-11T21:08:39.003Z,12.40
2022-08-11T21:11:28.943Z,12.57
2022-08-11T21:14:16.593Z,12.90
2022-08-11T21:17:26.933Z,13.57
2022-08-11T21:20:20.640Z,12.65
2022-08-11T21:23:13.100Z,12.85
2022-08-11T21:26:26.143Z,13.27
2022-08-11T21:29:14.669Z,12.68
2022-08-11T21:32:01.194Z,12.75
2022-08-11T21:34:49.754Z,12.68
2022-08-11T21:37:36.837Z,13.38
2022-08-11T21:40:25.836Z,13.60
2022-08-11T21:43:12.704Z,12.80
2022-08-11T21:45:59.679Z,12.50
2022-08-11T21:48:46.629Z,13.52
2022-08-11T21:51:32.571Z,12.75
2022-08-11T21:54:19.816Z,13.55
2022-08-11T21:57:06.758Z,13.25
2022-08-11T22:00:10.491Z,12.37
2022-08-11T22:03:00.960Z,13.07
2022-08-11T22:05:51.505Z,13.05
2022-08-11T22:08:37.473Z,13.15
2022-08-11T22:11:32.254Z,12.63
2022-08-11T22:14:21.620Z,13.93
2022-08-11T22:17:06.961Z,13.70
2022-08-11T22:19:55.068Z,12.63
2022-08-11T22:22:52.425Z,13.60
2022-08-11T22:25:51.618Z,13.02
2022-08-11T22:28:40.004Z,13.45
2022-08-11T22:31:26.903Z,12.02
2022-08-11T22:34:12.936Z,12.88
2022-08-11T22:37:00.296Z,12.37
2022-08-11T22:40:00.031Z,12.27
2022-08-11T22:42:49.795Z,12.70
2022-08-11T22:45:35.674Z,13.10
2022-08-11T22:48:23.995Z,12.60
2022-08-11T22:51:09.868Z,12.85
2022-08-11T22:53:58.357Z,12.70
2022-08-11T22:56:48.965Z,13.55
2022-08-11T22:59:38.279Z,13.52
2022-08-11T23:02:25.542Z,12.95
2022-08-11T23:05:11.617Z,13.15
2022-08-11T23:07:59.018Z,13.48
2022-08-11T23:10:45.931Z,13.05
2022-08-11T23:13:32.116Z,14.00
2022-08-11T23:16:19.097Z,12.88
2022-08-11T23:19:05.379Z,13.05
2022-08-11T23:21:51.315Z,13.18
2022-08-11T23:24:38.737Z,14.15
2022-08-11T23:27:27.528Z,13.40
2022-08-11T23:30:17.208Z,13.48
2022-08-11T23:33:07.489Z,14.23
2022-08-11T23:35:57.903Z,14.13
2022-08-11T23:38:45.208Z,13.75
2022-08-11T23:41:33.537Z,14.18
2022-08-11T23:44:20.549Z,14.27
2022-08-11T23:47:13.405Z,13.62
2022-08-11T23:49:59.620Z,13.95
2022-08-11T23:52:46.936Z,13.13
2022-08-11T23:55:32.357Z,13.82
2022-08-11T23:58:18.409Z,14.68
